Terminal Aerodrome Forecast
Issued by NWS

Home | Current Version | Previous Version | Text Only | Print | Product List | Glossary On
Versions: 1 2 3 4 5 6 7 8 9 10 11 12
897
FTUS45 KRIW 271121
TAFWRL
TAF
KWRL 271121Z 2712/2812 VRB05KT P6SM SCT100
     FM272100 17006KT P6SM SCT090 BKN150
     FM280100 34009KT P6SM SCT060 BKN090
     FM280800 34014G22KT P6SM -RA SCT020 BKN035=

USA.gov is the U.S. government's official web portal to all federal, state and local government web resources and services.